SPMJK LOWK-EPKT
Flight info
| Callsign | SPMJK |
|---|---|
| Flight time | 0h 54m |
| Altitude | 37000 |
| Route | ABIRI DCT LEDVA DCT BAVOK |
| Aircraft | HDJT/L-SABDGRWY/H |
Departure
| Time | 2026-05-07 08:14 |
|---|---|
| Airport | Klagenfurt Airport (LOWK) |
Arrival
| Time | 2026-05-07 09:09 |
|---|---|
| Airport | Katowice Wojciech Korfanty International Airport (EPKT) |
| Time | Latitude | Longitude | Altitude | Speed | Heading |
|---|---|---|---|---|---|
| 2026-05-07 08:09 | 46.64866 | 14.32394 | 1475 ft | 0 kts | 256° |
| 2026-05-07 08:12 | 46.64851 | 14.32364 | 1473 ft | 8 kts | 182° |
| 2026-05-07 08:12 | 46.64768 | 14.32398 | 1471 ft | 14 kts | 149° |
| 2026-05-07 08:12 | 46.64715 | 14.32486 | 1474 ft | 11 kts | 183° |
| 2026-05-07 08:13 | 46.64630 | 14.32460 | 1472 ft | 14 kts | 198° |
| 2026-05-07 08:13 | 46.64528 | 14.32428 | 1469 ft | 14 kts | 157° |
| 2026-05-07 08:13 | 46.64504 | 14.32516 | 1469 ft | 7 kts | 106° |
| 2026-05-07 08:13 | 46.64475 | 14.32661 | 1468 ft | 39 kts | 106° |
| 2026-05-07 08:14 | 46.64325 | 14.33404 | 1462 ft | 113 kts | 107° |
| 2026-05-07 08:14 | 46.64063 | 14.34713 | 1847 ft | 141 kts | 107° |
| 2026-05-07 08:14 | 46.63768 | 14.36153 | 2488 ft | 164 kts | 107° |
| 2026-05-07 08:14 | 46.63430 | 14.37790 | 3280 ft | 174 kts | 105° |
| 2026-05-07 08:15 | 46.63104 | 14.39535 | 4155 ft | 182 kts | 107° |
| 2026-05-07 08:15 | 46.62736 | 14.41367 | 4992 ft | 194 kts | 108° |
| 2026-05-07 08:15 | 46.62350 | 14.43295 | 5795 ft | 206 kts | 108° |
| 2026-05-07 08:15 | 46.61941 | 14.45369 | 6615 ft | 217 kts | 108° |
| 2026-05-07 08:16 | 46.61501 | 14.47541 | 7402 ft | 228 kts | 109° |
| 2026-05-07 08:16 | 46.61052 | 14.49777 | 8185 ft | 238 kts | 109° |
| 2026-05-07 08:16 | 46.60576 | 14.52145 | 8961 ft | 249 kts | 109° |
| 2026-05-07 08:16 | 46.60092 | 14.54588 | 9858 ft | 252 kts | 110° |
| 2026-05-07 08:17 | 46.59627 | 14.57075 | 10644 ft | 260 kts | 103° |
| 2026-05-07 08:17 | 46.59783 | 14.59717 | 11488 ft | 268 kts | 71° |
| 2026-05-07 08:17 | 46.60721 | 14.62089 | 12312 ft | 274 kts | 54° |
| 2026-05-07 08:17 | 46.61867 | 14.64339 | 13132 ft | 277 kts | 54° |
| 2026-05-07 08:18 | 46.62936 | 14.66660 | 13930 ft | 281 kts | 59° |
| 2026-05-07 08:18 | 46.63978 | 14.69102 | 14613 ft | 286 kts | 59° |
| 2026-05-07 08:18 | 46.65067 | 14.71564 | 15313 ft | 291 kts | 58° |
| 2026-05-07 08:18 | 46.66181 | 14.74027 | 16001 ft | 296 kts | 58° |
| 2026-05-07 08:19 | 46.67308 | 14.76565 | 16691 ft | 300 kts | 59° |
| 2026-05-07 08:19 | 46.68454 | 14.79155 | 17380 ft | 305 kts | 59° |
| 2026-05-07 08:19 | 46.69618 | 14.81772 | 18053 ft | 311 kts | 59° |
| 2026-05-07 08:19 | 46.70804 | 14.84442 | 18648 ft | 315 kts | 59° |
| 2026-05-07 08:20 | 46.71999 | 14.87137 | 19271 ft | 317 kts | 60° |
| 2026-05-07 08:20 | 46.73201 | 14.89853 | 19881 ft | 320 kts | 60° |
| 2026-05-07 08:20 | 46.74416 | 14.92605 | 20493 ft | 323 kts | 61° |
| 2026-05-07 08:20 | 46.75668 | 14.95308 | 21068 ft | 329 kts | 54° |
| 2026-05-07 08:21 | 46.77337 | 14.97638 | 21707 ft | 335 kts | 38° |
| 2026-05-07 08:21 | 46.79323 | 14.99480 | 22300 ft | 340 kts | 31° |
| 2026-05-07 08:21 | 46.81374 | 15.01274 | 22868 ft | 345 kts | 32° |
| 2026-05-07 08:21 | 46.83417 | 15.03109 | 23391 ft | 349 kts | 33° |
| 2026-05-07 08:22 | 46.85505 | 15.04978 | 23883 ft | 353 kts | 32° |
| 2026-05-07 08:22 | 46.87587 | 15.06826 | 24361 ft | 356 kts | 32° |
| 2026-05-07 08:22 | 46.89717 | 15.08714 | 24866 ft | 359 kts | 32° |
| 2026-05-07 08:22 | 46.91866 | 15.10637 | 25358 ft | 362 kts | 32° |
| 2026-05-07 08:23 | 46.94034 | 15.12573 | 25875 ft | 365 kts | 32° |
| 2026-05-07 08:23 | 46.96189 | 15.14493 | 26340 ft | 367 kts | 32° |
| 2026-05-07 08:23 | 46.98386 | 15.16456 | 26839 ft | 370 kts | 31° |
| 2026-05-07 08:23 | 47.00590 | 15.18431 | 27343 ft | 373 kts | 31° |
| 2026-05-07 08:24 | 47.02786 | 15.20402 | 27848 ft | 375 kts | 31° |
| 2026-05-07 08:24 | 47.05032 | 15.22414 | 28331 ft | 379 kts | 31° |
| 2026-05-07 08:24 | 47.07290 | 15.24439 | 28825 ft | 382 kts | 31° |
| 2026-05-07 08:24 | 47.09569 | 15.26486 | 29340 ft | 384 kts | 31° |
| 2026-05-07 08:25 | 47.11831 | 15.28524 | 29826 ft | 387 kts | 31° |
| 2026-05-07 08:25 | 47.14134 | 15.30596 | 30283 ft | 390 kts | 31° |
| 2026-05-07 08:25 | 47.16466 | 15.32696 | 30696 ft | 392 kts | 30° |
| 2026-05-07 08:25 | 47.18796 | 15.34798 | 31213 ft | 391 kts | 31° |
| 2026-05-07 08:26 | 47.23433 | 15.38989 | 32203 ft | 392 kts | 30° |
| 2026-05-07 08:26 | 47.25735 | 15.41070 | 32691 ft | 393 kts | 30° |
| 2026-05-07 08:26 | 47.28070 | 15.43191 | 33160 ft | 393 kts | 30° |
| 2026-05-07 08:27 | 47.30410 | 15.45315 | 33649 ft | 394 kts | 30° |
| 2026-05-07 08:27 | 47.32726 | 15.47412 | 34098 ft | 394 kts | 30° |
| 2026-05-07 08:27 | 47.35067 | 15.49538 | 34531 ft | 393 kts | 30° |
| 2026-05-07 08:27 | 47.37385 | 15.51650 | 35055 ft | 390 kts | 31° |
| 2026-05-07 08:28 | 47.39690 | 15.53752 | 35537 ft | 387 kts | 31° |
| 2026-05-07 08:28 | 47.41980 | 15.55838 | 35995 ft | 385 kts | 30° |
| 2026-05-07 08:28 | 47.44234 | 15.57893 | 36438 ft | 383 kts | 31° |
| 2026-05-07 08:28 | 47.46490 | 15.59957 | 36900 ft | 380 kts | 31° |
| 2026-05-07 08:29 | 47.48772 | 15.62044 | 36957 ft | 391 kts | 31° |
| 2026-05-07 08:29 | 47.51128 | 15.64196 | 36972 ft | 401 kts | 31° |
| 2026-05-07 08:29 | 47.55969 | 15.68641 | 36976 ft | 420 kts | 31° |
| 2026-05-07 08:30 | 47.61044 | 15.73300 | 36981 ft | 435 kts | 31° |
| 2026-05-07 08:30 | 47.66267 | 15.78114 | 36980 ft | 447 kts | 31° |
| 2026-05-07 08:31 | 47.71572 | 15.83012 | 36980 ft | 455 kts | 31° |
| 2026-05-07 08:31 | 47.76978 | 15.88018 | 36975 ft | 458 kts | 31° |
| 2026-05-07 08:32 | 47.82374 | 15.93023 | 36981 ft | 459 kts | 31° |
| 2026-05-07 08:32 | 47.87804 | 15.98079 | 36981 ft | 459 kts | 31° |
| 2026-05-07 08:33 | 47.93207 | 16.03112 | 36973 ft | 460 kts | 31° |
| 2026-05-07 08:33 | 47.98651 | 16.08209 | 36976 ft | 460 kts | 31° |
| 2026-05-07 08:34 | 48.04078 | 16.13287 | 36972 ft | 459 kts | 31° |
| 2026-05-07 08:34 | 48.09462 | 16.18356 | 36969 ft | 459 kts | 31° |
| 2026-05-07 08:35 | 48.14878 | 16.23451 | 36970 ft | 458 kts | 31° |
| 2026-05-07 08:35 | 48.20240 | 16.28520 | 36962 ft | 457 kts | 31° |
| 2026-05-07 08:36 | 48.25605 | 16.33596 | 36963 ft | 457 kts | 31° |
| 2026-05-07 08:36 | 48.30987 | 16.38707 | 36961 ft | 457 kts | 31° |
| 2026-05-07 08:37 | 48.36354 | 16.43811 | 36958 ft | 457 kts | 31° |
| 2026-05-07 08:37 | 48.41739 | 16.48951 | 36958 ft | 457 kts | 31° |
| 2026-05-07 08:38 | 48.47093 | 16.54072 | 36960 ft | 458 kts | 32° |
| 2026-05-07 08:38 | 48.52479 | 16.59235 | 36958 ft | 458 kts | 32° |
| 2026-05-07 08:39 | 48.57860 | 16.64409 | 36956 ft | 458 kts | 32° |
| 2026-05-07 08:39 | 48.63200 | 16.69555 | 36956 ft | 458 kts | 32° |
| 2026-05-07 08:40 | 48.68586 | 16.74757 | 36953 ft | 458 kts | 32° |
| 2026-05-07 08:40 | 48.73929 | 16.80016 | 36953 ft | 458 kts | 35° |
| 2026-05-07 08:41 | 48.79096 | 16.85583 | 36948 ft | 457 kts | 35° |
| 2026-05-07 08:41 | 48.84302 | 16.91147 | 36949 ft | 457 kts | 35° |
| 2026-05-07 08:42 | 48.89494 | 16.96750 | 36944 ft | 457 kts | 35° |
| 2026-05-07 08:42 | 48.94665 | 17.02318 | 36944 ft | 457 kts | 35° |
| 2026-05-07 08:43 | 48.99847 | 17.07928 | 36934 ft | 456 kts | 35° |
| 2026-05-07 08:43 | 49.05029 | 17.13543 | 36933 ft | 456 kts | 35° |
| 2026-05-07 08:44 | 49.10174 | 17.19137 | 36932 ft | 456 kts | 35° |
| 2026-05-07 08:44 | 49.15339 | 17.24766 | 36932 ft | 455 kts | 35° |
| 2026-05-07 08:45 | 49.20468 | 17.30374 | 36934 ft | 455 kts | 35° |
| 2026-05-07 08:45 | 49.25631 | 17.36029 | 36929 ft | 455 kts | 35° |
| 2026-05-07 08:46 | 49.30782 | 17.41690 | 36926 ft | 455 kts | 36° |
| 2026-05-07 08:46 | 49.35887 | 17.47313 | 36905 ft | 455 kts | 36° |
| 2026-05-07 08:47 | 49.38484 | 17.50179 | 36368 ft | 461 kts | 36° |
| 2026-05-07 08:47 | 49.41088 | 17.53052 | 35771 ft | 460 kts | 36° |
| 2026-05-07 08:47 | 49.43696 | 17.55942 | 35159 ft | 462 kts | 36° |
| 2026-05-07 08:47 | 49.45429 | 17.57865 | 34756 ft | 464 kts | 36° |
| 2026-05-07 08:48 | 49.48918 | 17.61731 | 33938 ft | 466 kts | 36° |
| 2026-05-07 08:48 | 49.50668 | 17.63671 | 33486 ft | 467 kts | 36° |
| 2026-05-07 08:48 | 49.53312 | 17.66613 | 32868 ft | 466 kts | 37° |
| 2026-05-07 08:48 | 49.55953 | 17.69560 | 32246 ft | 467 kts | 37° |
| 2026-05-07 08:49 | 49.58557 | 17.72467 | 31630 ft | 467 kts | 37° |
| 2026-05-07 08:49 | 49.61198 | 17.75408 | 31015 ft | 468 kts | 37° |
| 2026-05-07 08:49 | 49.63836 | 17.78354 | 30392 ft | 468 kts | 37° |
| 2026-05-07 08:49 | 49.66473 | 17.81317 | 29738 ft | 468 kts | 37° |
| 2026-05-07 08:50 | 49.69099 | 17.84259 | 29108 ft | 464 kts | 37° |
| 2026-05-07 08:50 | 49.71713 | 17.87187 | 28499 ft | 461 kts | 37° |
| 2026-05-07 08:50 | 49.74262 | 17.90059 | 27897 ft | 457 kts | 37° |
| 2026-05-07 08:50 | 49.76834 | 17.92951 | 27297 ft | 453 kts | 37° |
| 2026-05-07 08:51 | 49.79372 | 17.95809 | 26704 ft | 449 kts | 37° |
| 2026-05-07 08:51 | 49.81894 | 17.98664 | 26111 ft | 445 kts | 37° |
| 2026-05-07 08:51 | 49.84395 | 18.01486 | 25523 ft | 442 kts | 37° |
| 2026-05-07 08:51 | 49.86841 | 18.04254 | 24951 ft | 439 kts | 37° |
| 2026-05-07 08:52 | 49.89302 | 18.07044 | 24372 ft | 436 kts | 37° |
| 2026-05-07 08:52 | 49.91747 | 18.09817 | 23799 ft | 432 kts | 37° |
| 2026-05-07 08:52 | 49.94179 | 18.12583 | 23191 ft | 429 kts | 36° |
| 2026-05-07 08:52 | 49.96573 | 18.15302 | 22610 ft | 423 kts | 36° |
| 2026-05-07 08:53 | 49.98838 | 18.18095 | 22055 ft | 418 kts | 44° |
| 2026-05-07 08:53 | 50.00731 | 18.21502 | 21509 ft | 412 kts | 56° |
| 2026-05-07 08:53 | 50.02198 | 18.25297 | 20967 ft | 406 kts | 66° |
| 2026-05-07 08:53 | 50.03448 | 18.29215 | 20442 ft | 401 kts | 65° |
| 2026-05-07 08:54 | 50.04727 | 18.33005 | 19985 ft | 398 kts | 64° |
| 2026-05-07 08:54 | 50.06020 | 18.36819 | 19464 ft | 395 kts | 65° |
| 2026-05-07 08:54 | 50.07239 | 18.40591 | 18954 ft | 390 kts | 65° |
| 2026-05-07 08:54 | 50.08454 | 18.44354 | 18440 ft | 387 kts | 64° |
| 2026-05-07 08:55 | 50.09692 | 18.48073 | 17899 ft | 383 kts | 64° |
| 2026-05-07 08:55 | 50.10897 | 18.51708 | 17386 ft | 378 kts | 64° |
| 2026-05-07 08:55 | 50.12077 | 18.55366 | 16894 ft | 374 kts | 65° |
| 2026-05-07 08:55 | 50.13251 | 18.58989 | 16397 ft | 370 kts | 64° |
| 2026-05-07 08:56 | 50.14415 | 18.62514 | 15914 ft | 367 kts | 64° |
| 2026-05-07 08:56 | 50.15569 | 18.66048 | 15432 ft | 364 kts | 65° |
| 2026-05-07 08:56 | 50.16706 | 18.69566 | 14955 ft | 360 kts | 64° |
| 2026-05-07 08:56 | 50.17833 | 18.73028 | 14479 ft | 356 kts | 64° |
| 2026-05-07 08:57 | 50.18949 | 18.76466 | 14013 ft | 353 kts | 64° |
| 2026-05-07 08:57 | 50.20035 | 18.79835 | 13538 ft | 350 kts | 64° |
| 2026-05-07 08:57 | 50.21135 | 18.83217 | 13062 ft | 347 kts | 64° |
| 2026-05-07 08:57 | 50.22217 | 18.86570 | 12607 ft | 345 kts | 64° |
| 2026-05-07 08:58 | 50.23292 | 18.89912 | 12152 ft | 343 kts | 64° |
| 2026-05-07 08:58 | 50.24353 | 18.93192 | 11708 ft | 341 kts | 64° |
| 2026-05-07 08:58 | 50.25416 | 18.96500 | 11260 ft | 339 kts | 64° |
| 2026-05-07 08:58 | 50.26476 | 18.99799 | 10815 ft | 338 kts | 64° |
| 2026-05-07 08:59 | 50.27525 | 19.03071 | 10370 ft | 327 kts | 64° |
| 2026-05-07 08:59 | 50.28510 | 19.06132 | 9946 ft | 314 kts | 64° |
| 2026-05-07 08:59 | 50.29481 | 19.09177 | 9518 ft | 311 kts | 64° |
| 2026-05-07 08:59 | 50.30448 | 19.12203 | 9109 ft | 308 kts | 64° |
| 2026-05-07 09:00 | 50.31394 | 19.15154 | 8703 ft | 305 kts | 64° |
| 2026-05-07 09:00 | 50.32330 | 19.18107 | 8300 ft | 294 kts | 63° |
| 2026-05-07 09:00 | 50.33235 | 19.20933 | 7920 ft | 288 kts | 63° |
| 2026-05-07 09:00 | 50.34135 | 19.23751 | 7541 ft | 288 kts | 63° |
| 2026-05-07 09:01 | 50.34991 | 19.26456 | 7172 ft | 270 kts | 63° |
| 2026-05-07 09:01 | 50.35800 | 19.29007 | 6827 ft | 254 kts | 63° |
| 2026-05-07 09:01 | 50.36580 | 19.31456 | 6496 ft | 249 kts | 63° |
| 2026-05-07 09:01 | 50.37356 | 19.33885 | 6162 ft | 248 kts | 60° |
| 2026-05-07 09:02 | 50.38413 | 19.35951 | 5832 ft | 244 kts | 39° |
| 2026-05-07 09:02 | 50.39812 | 19.37394 | 5507 ft | 238 kts | 20° |
| 2026-05-07 09:02 | 50.41393 | 19.38096 | 5194 ft | 234 kts | 2° |
| 2026-05-07 09:02 | 50.43001 | 19.38036 | 4883 ft | 227 kts | 346° |
| 2026-05-07 09:03 | 50.44449 | 19.37315 | 4585 ft | 218 kts | 329° |
| 2026-05-07 09:03 | 50.45698 | 19.36011 | 4289 ft | 210 kts | 314° |
| 2026-05-07 09:03 | 50.46612 | 19.34359 | 4028 ft | 190 kts | 300° |
| 2026-05-07 09:03 | 50.47196 | 19.32566 | 3951 ft | 188 kts | 288° |
| 2026-05-07 09:04 | 50.47478 | 19.30586 | 3608 ft | 175 kts | 273° |
| 2026-05-07 09:04 | 50.47532 | 19.28792 | 3379 ft | 156 kts | 270° |
| 2026-05-07 09:04 | 50.47553 | 19.27077 | 3174 ft | 155 kts | 270° |
| 2026-05-07 09:04 | 50.47565 | 19.25481 | 2987 ft | 144 kts | 269° |
| 2026-05-07 09:05 | 50.47562 | 19.24062 | 2814 ft | 115 kts | 269° |
| 2026-05-07 09:05 | 50.47569 | 19.22868 | 2666 ft | 108 kts | 269° |
| 2026-05-07 09:05 | 50.47575 | 19.21679 | 2522 ft | 109 kts | 269° |
| 2026-05-07 09:05 | 50.47572 | 19.20497 | 2382 ft | 106 kts | 270° |
| 2026-05-07 09:06 | 50.47574 | 19.19356 | 2237 ft | 104 kts | 269° |
| 2026-05-07 09:06 | 50.47577 | 19.18218 | 2102 ft | 104 kts | 269° |
| 2026-05-07 09:06 | 50.47578 | 19.17076 | 1960 ft | 107 kts | 268° |
| 2026-05-07 09:06 | 50.47579 | 19.15870 | 1816 ft | 114 kts | 270° |
| 2026-05-07 09:07 | 50.47587 | 19.14634 | 1657 ft | 112 kts | 268° |
| 2026-05-07 09:07 | 50.47590 | 19.13469 | 1506 ft | 101 kts | 266° |
| 2026-05-07 09:07 | 50.47596 | 19.12403 | 1365 ft | 96 kts | 269° |
| 2026-05-07 09:07 | 50.47596 | 19.11343 | 1217 ft | 98 kts | 268° |
| 2026-05-07 09:08 | 50.47596 | 19.10278 | 1106 ft | 96 kts | 269° |
| 2026-05-07 09:08 | 50.47599 | 19.09248 | 1037 ft | 91 kts | 270° |
| 2026-05-07 09:08 | 50.47599 | 19.08317 | 1009 ft | 76 kts | 270° |
| 2026-05-07 09:08 | 50.47601 | 19.07605 | 1003 ft | 55 kts | 270° |
| 2026-05-07 09:09 | 50.47589 | 19.07186 | 1005 ft | 30 kts | 255° |
| 2026-05-07 09:09 | 50.47511 | 19.06912 | 1000 ft | 25 kts | 240° |
| 2026-05-07 09:09 | 50.47433 | 19.06690 | 999 ft | 21 kts | 252° |
| 2026-05-07 09:09 | 50.47428 | 19.06478 | 997 ft | 20 kts | 270° |
| 2026-05-07 09:10 | 50.47429 | 19.06251 | 995 ft | 22 kts | 270° |
| 2026-05-07 09:10 | 50.47441 | 19.06014 | 997 ft | 21 kts | 295° |
| 2026-05-07 09:10 | 50.47447 | 19.05775 | 992 ft | 23 kts | 263° |
| 2026-05-07 09:10 | 50.47407 | 19.05763 | 992 ft | 6 kts | 91° |
| 2026-05-07 09:11 | 50.47415 | 19.05811 | 992 ft | 0 kts | 21° |
| 2026-05-07 09:11 | 50.47419 | 19.05812 | 998 ft | 1 kts | 2° |
| 2026-05-07 09:11 | 50.47422 | 19.05812 | 997 ft | 0 kts | 1° |